sensor_id;sensor_type;location;lat;lon;timestamp;P1;durP1;ratioP1;P2;durP2;ratioP2
63203;SDS011;49297;43.210;27.914;2023-11-19T00:00:03;0.98;;;0.93;;
63203;SDS011;49297;43.210;27.914;2023-11-19T00:02:32;0.95;;;0.77;;
63203;SDS011;49297;43.210;27.914;2023-11-19T00:04:57;2.28;;;1.63;;
63203;SDS011;49297;43.210;27.914;2023-11-19T00:12:15;1.45;;;1.17;;
63203;SDS011;49297;43.210;27.914;2023-11-19T00:17:06;3.25;;;1.45;;
63203;SDS011;49297;43.210;27.914;2023-11-19T00:19:32;1.73;;;1.38;;
63203;SDS011;49297;43.210;27.914;2023-11-19T00:21:58;1.48;;;0.88;;
63203;SDS011;49297;43.210;27.914;2023-11-19T00:24:27;1.50;;;1.40;;
63203;SDS011;49297;43.210;27.914;2023-11-19T00:26:53;1.90;;;1.10;;
63203;SDS011;49297;43.210;27.914;2023-11-19T00:29:19;5.28;;;1.25;;
63203;SDS011;49297;43.210;27.914;2023-11-19T00:31:46;3.58;;;1.77;;
63203;SDS011;49297;43.210;27.914;2023-11-19T00:36:39;1.77;;;1.23;;
63203;SDS011;49297;43.210;27.914;2023-11-19T00:39:05;2.50;;;2.30;;
63203;SDS011;49297;43.210;27.914;2023-11-19T00:43:56;1.50;;;1.17;;
63203;SDS011;49297;43.210;27.914;2023-11-19T00:46:25;2.28;;;1.58;;
63203;SDS011;49297;43.210;27.914;2023-11-19T00:48:51;1.90;;;1.67;;
63203;SDS011;49297;43.210;27.914;2023-11-19T00:51:17;2.65;;;1.88;;
63203;SDS011;49297;43.210;27.914;2023-11-19T00:53:44;1.52;;;1.30;;
63203;SDS011;49297;43.210;27.914;2023-11-19T00:56:10;1.40;;;1.30;;
63203;SDS011;49297;43.210;27.914;2023-11-19T00:58:37;3.13;;;2.03;;
63203;SDS011;49297;43.210;27.914;2023-11-19T01:01:03;2.15;;;1.95;;
63203;SDS011;49297;43.210;27.914;2023-11-19T01:05:18;4.20;;;2.17;;
63203;SDS011;49297;43.210;27.914;2023-11-19T01:07:47;1.50;;;1.30;;
63203;SDS011;49297;43.210;27.914;2023-11-19T01:10:13;3.40;;;1.83;;
63203;SDS011;49297;43.210;27.914;2023-11-19T01:12:41;2.35;;;2.05;;
63203;SDS011;49297;43.210;27.914;2023-11-19T01:15:07;3.35;;;2.65;;
63203;SDS011;49297;43.210;27.914;2023-11-19T01:17:33;3.03;;;2.35;;
63203;SDS011;49297;43.210;27.914;2023-11-19T01:19:59;3.05;;;2.75;;
63203;SDS011;49297;43.210;27.914;2023-11-19T01:22:25;1.60;;;1.45;;
63203;SDS011;49297;43.210;27.914;2023-11-19T01:24:51;3.55;;;3.05;;
63203;SDS011;49297;43.210;27.914;2023-11-19T01:27:17;2.63;;;1.83;;
63203;SDS011;49297;43.210;27.914;2023-11-19T01:29:43;3.63;;;2.42;;
63203;SDS011;49297;43.210;27.914;2023-11-19T01:32:09;2.65;;;2.45;;
63203;SDS011;49297;43.210;27.914;2023-11-19T01:34:34;2.38;;;1.70;;
63203;SDS011;49297;43.210;27.914;2023-11-19T01:37:01;2.00;;;1.80;;
63203;SDS011;49297;43.210;27.914;2023-11-19T01:39:26;3.97;;;2.53;;
63203;SDS011;49297;43.210;27.914;2023-11-19T01:41:52;2.53;;;2.08;;
63203;SDS011;49297;43.210;27.914;2023-11-19T01:44:19;2.78;;;1.88;;
63203;SDS011;49297;43.210;27.914;2023-11-19T01:46:45;3.03;;;2.13;;
63203;SDS011;49297;43.210;27.914;2023-11-19T01:49:14;1.85;;;1.33;;
63203;SDS011;49297;43.210;27.914;2023-11-19T01:51:41;1.92;;;1.73;;
63203;SDS011;49297;43.210;27.914;2023-11-19T01:54:07;1.92;;;1.80;;
63203;SDS011;49297;43.210;27.914;2023-11-19T01:56:34;2.72;;;1.38;;
63203;SDS011;49297;43.210;27.914;2023-11-19T01:59:01;2.05;;;1.92;;
63203;SDS011;49297;43.210;27.914;2023-11-19T02:01:28;3.38;;;2.72;;
63203;SDS011;49297;43.210;27.914;2023-11-19T02:03:55;2.13;;;1.90;;
63203;SDS011;49297;43.210;27.914;2023-11-19T02:06:21;2.50;;;2.20;;
63203;SDS011;49297;43.210;27.914;2023-11-19T02:08:46;3.53;;;2.58;;
63203;SDS011;49297;43.210;27.914;2023-11-19T02:11:18;2.22;;;2.03;;
63203;SDS011;49297;43.210;27.914;2023-11-19T02:13:44;2.80;;;2.58;;
63203;SDS011;49297;43.210;27.914;2023-11-19T02:16:10;3.58;;;2.35;;
63203;SDS011;49297;43.210;27.914;2023-11-19T02:18:36;5.68;;;2.60;;
63203;SDS011;49297;43.210;27.914;2023-11-19T02:21:02;3.05;;;2.67;;
63203;SDS011;49297;43.210;27.914;2023-11-19T02:23:28;2.97;;;2.60;;
63203;SDS011;49297;43.210;27.914;2023-11-19T02:28:28;2.45;;;2.20;;
63203;SDS011;49297;43.210;27.914;2023-11-19T02:30:54;2.08;;;1.60;;
63203;SDS011;49297;43.210;27.914;2023-11-19T02:33:20;2.47;;;2.20;;
63203;SDS011;49297;43.210;27.914;2023-11-19T02:35:46;2.28;;;2.13;;
63203;SDS011;49297;43.210;27.914;2023-11-19T02:38:11;1.75;;;1.50;;
63203;SDS011;49297;43.210;27.914;2023-11-19T02:40:39;3.97;;;2.78;;
63203;SDS011;49297;43.210;27.914;2023-11-19T02:43:05;2.75;;;2.33;;
63203;SDS011;49297;43.210;27.914;2023-11-19T02:45:30;3.15;;;2.70;;
63203;SDS011;49297;43.210;27.914;2023-11-19T02:47:56;5.05;;;2.72;;
63203;SDS011;49297;43.210;27.914;2023-11-19T02:50:22;2.88;;;2.65;;
63203;SDS011;49297;43.210;27.914;2023-11-19T02:52:54;2.90;;;2.65;;
63203;SDS011;49297;43.210;27.914;2023-11-19T02:55:21;4.93;;;2.40;;
63203;SDS011;49297;43.210;27.914;2023-11-19T02:57:49;2.97;;;2.42;;
63203;SDS011;49297;43.210;27.914;2023-11-19T03:00:16;3.85;;;3.47;;
63203;SDS011;49297;43.210;27.914;2023-11-19T03:02:43;3.38;;;3.13;;
63203;SDS011;49297;43.210;27.914;2023-11-19T03:05:12;4.20;;;3.30;;
63203;SDS011;49297;43.210;27.914;2023-11-19T03:07:43;5.45;;;3.60;;
63203;SDS011;49297;43.210;27.914;2023-11-19T03:10:09;4.20;;;3.80;;
63203;SDS011;49297;43.210;27.914;2023-11-19T03:12:40;4.85;;;4.35;;
63203;SDS011;49297;43.210;27.914;2023-11-19T03:15:06;7.53;;;4.63;;
63203;SDS011;49297;43.210;27.914;2023-11-19T03:17:35;4.20;;;3.80;;
63203;SDS011;49297;43.210;27.914;2023-11-19T03:20:03;5.68;;;3.83;;
63203;SDS011;49297;43.210;27.914;2023-11-19T03:22:36;7.35;;;5.65;;
63203;SDS011;49297;43.210;27.914;2023-11-19T03:25:03;5.93;;;4.40;;
63203;SDS011;49297;43.210;27.914;2023-11-19T03:27:29;7.03;;;5.75;;
63203;SDS011;49297;43.210;27.914;2023-11-19T03:29:55;8.82;;;6.40;;
63203;SDS011;49297;43.210;27.914;2023-11-19T03:32:20;7.75;;;5.82;;
63203;SDS011;49297;43.210;27.914;2023-11-19T03:34:46;8.35;;;6.50;;
63203;SDS011;49297;43.210;27.914;2023-11-19T03:37:13;5.90;;;5.10;;
63203;SDS011;49297;43.210;27.914;2023-11-19T03:39:42;4.97;;;4.25;;
63203;SDS011;49297;43.210;27.914;2023-11-19T03:42:08;8.18;;;6.00;;
63203;SDS011;49297;43.210;27.914;2023-11-19T03:44:34;7.28;;;6.55;;
63203;SDS011;49297;43.210;27.914;2023-11-19T03:46:59;6.88;;;6.25;;
63203;SDS011;49297;43.210;27.914;2023-11-19T03:49:25;7.50;;;5.70;;
63203;SDS011;49297;43.210;27.914;2023-11-19T03:51:51;8.73;;;6.03;;
63203;SDS011;49297;43.210;27.914;2023-11-19T03:54:16;6.72;;;5.18;;
63203;SDS011;49297;43.210;27.914;2023-11-19T03:56:42;10.15;;;7.85;;
63203;SDS011;49297;43.210;27.914;2023-11-19T03:59:10;8.00;;;7.07;;
63203;SDS011;49297;43.210;27.914;2023-11-19T04:01:35;7.95;;;7.25;;
63203;SDS011;49297;43.210;27.914;2023-11-19T04:04:02;9.63;;;7.10;;
63203;SDS011;49297;43.210;27.914;2023-11-19T04:06:28;49.38;;;9.13;;
63203;SDS011;49297;43.210;27.914;2023-11-19T04:08:54;7.57;;;6.15;;
63203;SDS011;49297;43.210;27.914;2023-11-19T04:11:20;5.93;;;5.22;;
63203;SDS011;49297;43.210;27.914;2023-11-19T04:13:46;6.40;;;5.80;;
63203;SDS011;49297;43.210;27.914;2023-11-19T04:16:12;7.70;;;6.90;;
63203;SDS011;49297;43.210;27.914;2023-11-19T04:18:38;7.82;;;5.20;;
63203;SDS011;49297;43.210;27.914;2023-11-19T04:21:05;5.55;;;4.95;;
63203;SDS011;49297;43.210;27.914;2023-11-19T04:26:04;6.20;;;5.32;;
63203;SDS011;49297;43.210;27.914;2023-11-19T04:28:30;10.50;;;7.28;;
63203;SDS011;49297;43.210;27.914;2023-11-19T04:30:56;10.30;;;7.30;;
63203;SDS011;49297;43.210;27.914;2023-11-19T04:33:23;7.35;;;6.00;;
63203;SDS011;49297;43.210;27.914;2023-11-19T04:35:48;11.52;;;7.55;;
63203;SDS011;49297;43.210;27.914;2023-11-19T04:38:15;6.93;;;5.53;;
63203;SDS011;49297;43.210;27.914;2023-11-19T04:40:41;6.63;;;6.00;;
63203;SDS011;49297;43.210;27.914;2023-11-19T04:43:07;7.07;;;6.32;;
63203;SDS011;49297;43.210;27.914;2023-11-19T04:45:32;7.20;;;5.63;;
63203;SDS011;49297;43.210;27.914;2023-11-19T04:47:59;7.53;;;6.22;;
63203;SDS011;49297;43.210;27.914;2023-11-19T04:50:24;8.43;;;6.03;;
63203;SDS011;49297;43.210;27.914;2023-11-19T04:52:52;17.30;;;6.10;;
63203;SDS011;49297;43.210;27.914;2023-11-19T04:55:19;5.65;;;5.15;;
63203;SDS011;49297;43.210;27.914;2023-11-19T04:57:44;6.32;;;5.72;;
63203;SDS011;49297;43.210;27.914;2023-11-19T05:00:10;6.68;;;5.32;;
63203;SDS011;49297;43.210;27.914;2023-11-19T05:02:36;8.20;;;6.63;;
63203;SDS011;49297;43.210;27.914;2023-11-19T05:05:02;7.82;;;6.20;;
63203;SDS011;49297;43.210;27.914;2023-11-19T05:07:31;8.48;;;6.82;;
63203;SDS011;49297;43.210;27.914;2023-11-19T05:09:57;7.05;;;6.32;;
63203;SDS011;49297;43.210;27.914;2023-11-19T05:12:23;8.98;;;7.80;;
63203;SDS011;49297;43.210;27.914;2023-11-19T05:14:49;7.82;;;7.03;;
63203;SDS011;49297;43.210;27.914;2023-11-19T05:17:17;9.95;;;6.82;;
63203;SDS011;49297;43.210;27.914;2023-11-19T05:19:43;8.27;;;6.35;;
63203;SDS011;49297;43.210;27.914;2023-11-19T05:22:09;8.15;;;7.07;;
63203;SDS011;49297;43.210;27.914;2023-11-19T05:24:35;10.43;;;7.15;;
63203;SDS011;49297;43.210;27.914;2023-11-19T05:27:01;6.55;;;5.95;;
63203;SDS011;49297;43.210;27.914;2023-11-19T05:29:27;6.32;;;5.72;;
63203;SDS011;49297;43.210;27.914;2023-11-19T05:31:54;8.75;;;6.32;;
63203;SDS011;49297;43.210;27.914;2023-11-19T05:34:21;7.97;;;6.57;;
63203;SDS011;49297;43.210;27.914;2023-11-19T05:36:47;9.05;;;7.35;;
63203;SDS011;49297;43.210;27.914;2023-11-19T05:39:12;6.40;;;5.80;;
63203;SDS011;49297;43.210;27.914;2023-11-19T05:41:38;11.60;;;8.00;;
63203;SDS011;49297;43.210;27.914;2023-11-19T05:44:04;6.97;;;6.28;;
63203;SDS011;49297;43.210;27.914;2023-11-19T05:46:29;9.07;;;6.57;;
63203;SDS011;49297;43.210;27.914;2023-11-19T05:48:55;7.47;;;5.88;;
63203;SDS011;49297;43.210;27.914;2023-11-19T05:51:21;9.10;;;6.25;;
63203;SDS011;49297;43.210;27.914;2023-11-19T05:53:49;6.60;;;5.88;;
63203;SDS011;49297;43.210;27.914;2023-11-19T05:56:15;14.20;;;6.43;;
63203;SDS011;49297;43.210;27.914;2023-11-19T05:58:46;6.63;;;5.95;;
63203;SDS011;49297;43.210;27.914;2023-11-19T06:01:13;5.10;;;4.60;;
63203;SDS011;49297;43.210;27.914;2023-11-19T06:03:40;6.97;;;6.32;;
63203;SDS011;49297;43.210;27.914;2023-11-19T06:06:08;7.45;;;5.57;;
63203;SDS011;49297;43.210;27.914;2023-11-19T06:08:34;6.03;;;5.38;;
63203;SDS011;49297;43.210;27.914;2023-11-19T06:11:00;7.03;;;5.63;;
63203;SDS011;49297;43.210;27.914;2023-11-19T06:13:28;7.43;;;5.25;;
63203;SDS011;49297;43.210;27.914;2023-11-19T06:15:56;7.40;;;5.32;;
63203;SDS011;49297;43.210;27.914;2023-11-19T06:18:21;5.15;;;4.32;;
63203;SDS011;49297;43.210;27.914;2023-11-19T06:20:48;7.13;;;6.40;;
63203;SDS011;49297;43.210;27.914;2023-11-19T06:23:16;5.78;;;4.65;;
63203;SDS011;49297;43.210;27.914;2023-11-19T06:25:43;5.30;;;4.55;;
63203;SDS011;49297;43.210;27.914;2023-11-19T06:28:08;6.97;;;5.72;;
63203;SDS011;49297;43.210;27.914;2023-11-19T06:30:34;6.10;;;5.45;;
63203;SDS011;49297;43.210;27.914;2023-11-19T06:33:01;6.25;;;5.25;;
63203;SDS011;49297;43.210;27.914;2023-11-19T06:35:28;4.10;;;3.20;;
63203;SDS011;49297;43.210;27.914;2023-11-19T06:38:01;5.60;;;4.60;;
63203;SDS011;49297;43.210;27.914;2023-11-19T06:40:30;6.28;;;5.68;;
63203;SDS011;49297;43.210;27.914;2023-11-19T06:43:00;5.80;;;4.45;;
63203;SDS011;49297;43.210;27.914;2023-11-19T06:45:28;6.03;;;4.97;;
63203;SDS011;49297;43.210;27.914;2023-11-19T06:47:54;5.35;;;4.57;;
63203;SDS011;49297;43.210;27.914;2023-11-19T06:50:19;5.80;;;5.20;;
63203;SDS011;49297;43.210;27.914;2023-11-19T06:52:46;5.47;;;4.65;;
63203;SDS011;49297;43.210;27.914;2023-11-19T06:55:11;4.60;;;4.20;;
63203;SDS011;49297;43.210;27.914;2023-11-19T06:57:37;5.63;;;4.28;;
63203;SDS011;49297;43.210;27.914;2023-11-19T07:00:04;7.47;;;5.47;;
63203;SDS011;49297;43.210;27.914;2023-11-19T07:02:31;5.45;;;4.95;;
63203;SDS011;49297;43.210;27.914;2023-11-19T07:04:57;3.67;;;3.38;;
63203;SDS011;49297;43.210;27.914;2023-11-19T07:07:23;6.35;;;5.80;;
63203;SDS011;49297;43.210;27.914;2023-11-19T07:09:49;5.15;;;4.35;;
63203;SDS011;49297;43.210;27.914;2023-11-19T07:12:15;5.47;;;4.97;;
63203;SDS011;49297;43.210;27.914;2023-11-19T07:14:41;7.95;;;5.63;;
63203;SDS011;49297;43.210;27.914;2023-11-19T07:17:07;5.90;;;5.25;;
63203;SDS011;49297;43.210;27.914;2023-11-19T07:19:34;6.63;;;5.25;;
63203;SDS011;49297;43.210;27.914;2023-11-19T07:22:01;7.55;;;6.05;;
63203;SDS011;49297;43.210;27.914;2023-11-19T07:24:27;6.32;;;5.72;;
63203;SDS011;49297;43.210;27.914;2023-11-19T07:26:59;5.80;;;5.15;;
63203;SDS011;49297;43.210;27.914;2023-11-19T07:29:25;8.02;;;4.82;;
63203;SDS011;49297;43.210;27.914;2023-11-19T07:31:54;6.25;;;5.63;;
63203;SDS011;49297;43.210;27.914;2023-11-19T07:34:24;5.00;;;3.90;;
63203;SDS011;49297;43.210;27.914;2023-11-19T07:36:49;6.72;;;6.07;;
63203;SDS011;49297;43.210;27.914;2023-11-19T07:39:15;6.72;;;5.72;;
63203;SDS011;49297;43.210;27.914;2023-11-19T07:41:41;7.57;;;5.80;;
63203;SDS011;49297;43.210;27.914;2023-11-19T07:44:07;10.38;;;7.15;;
63203;SDS011;49297;43.210;27.914;2023-11-19T07:46:33;6.78;;;5.78;;
63203;SDS011;49297;43.210;27.914;2023-11-19T07:48:58;6.43;;;5.82;;
63203;SDS011;49297;43.210;27.914;2023-11-19T07:51:24;5.82;;;5.32;;
63203;SDS011;49297;43.210;27.914;2023-11-19T07:53:50;6.30;;;5.70;;
63203;SDS011;49297;43.210;27.914;2023-11-19T07:56:15;6.85;;;6.03;;
63203;SDS011;49297;43.210;27.914;2023-11-19T07:58:42;6.43;;;5.78;;
63203;SDS011;49297;43.210;27.914;2023-11-19T08:01:08;6.22;;;5.47;;
63203;SDS011;49297;43.210;27.914;2023-11-19T08:03:35;6.80;;;5.80;;
63203;SDS011;49297;43.210;27.914;2023-11-19T08:06:01;7.93;;;5.80;;
63203;SDS011;49297;43.210;27.914;2023-11-19T08:08:28;6.78;;;4.82;;
63203;SDS011;49297;43.210;27.914;2023-11-19T08:10:55;6.45;;;5.25;;
63203;SDS011;49297;43.210;27.914;2023-11-19T08:13:23;6.43;;;5.82;;
63203;SDS011;49297;43.210;27.914;2023-11-19T08:15:49;6.75;;;5.45;;
63203;SDS011;49297;43.210;27.914;2023-11-19T08:18:15;9.13;;;6.70;;
63203;SDS011;49297;43.210;27.914;2023-11-19T08:20:41;6.97;;;6.15;;
63203;SDS011;49297;43.210;27.914;2023-11-19T08:23:08;6.68;;;5.53;;
63203;SDS011;49297;43.210;27.914;2023-11-19T08:25:34;5.38;;;4.93;;
63203;SDS011;49297;43.210;27.914;2023-11-19T08:28:00;7.35;;;5.25;;
63203;SDS011;49297;43.210;27.914;2023-11-19T08:30:26;7.50;;;6.07;;
63203;SDS011;49297;43.210;27.914;2023-11-19T08:32:52;6.65;;;5.85;;
63203;SDS011;49297;43.210;27.914;2023-11-19T08:35:17;5.60;;;5.00;;
63203;SDS011;49297;43.210;27.914;2023-11-19T08:37:43;7.72;;;5.18;;
63203;SDS011;49297;43.210;27.914;2023-11-19T08:40:11;7.22;;;5.25;;
63203;SDS011;49297;43.210;27.914;2023-11-19T08:42:38;6.07;;;5.57;;
63203;SDS011;49297;43.210;27.914;2023-11-19T08:45:04;7.25;;;5.63;;
63203;SDS011;49297;43.210;27.914;2023-11-19T08:47:30;5.82;;;5.25;;
63203;SDS011;49297;43.210;27.914;2023-11-19T08:49:56;7.40;;;5.18;;
63203;SDS011;49297;43.210;27.914;2023-11-19T08:52:22;6.95;;;6.35;;
63203;SDS011;49297;43.210;27.914;2023-11-19T08:54:48;6.28;;;5.05;;
63203;SDS011;49297;43.210;27.914;2023-11-19T08:57:14;6.43;;;5.68;;
63203;SDS011;49297;43.210;27.914;2023-11-19T08:59:40;8.10;;;6.55;;
63203;SDS011;49297;43.210;27.914;2023-11-19T09:02:06;5.55;;;4.80;;
63203;SDS011;49297;43.210;27.914;2023-11-19T09:04:32;6.40;;;5.07;;
63203;SDS011;49297;43.210;27.914;2023-11-19T09:06:58;6.63;;;5.95;;
63203;SDS011;49297;43.210;27.914;2023-11-19T09:09:24;6.65;;;4.82;;
63203;SDS011;49297;43.210;27.914;2023-11-19T09:11:50;6.57;;;5.47;;
63203;SDS011;49297;43.210;27.914;2023-11-19T09:14:16;7.32;;;6.32;;
63203;SDS011;49297;43.210;27.914;2023-11-19T09:16:43;9.25;;;5.75;;
63203;SDS011;49297;43.210;27.914;2023-11-19T09:19:09;6.60;;;5.72;;
63203;SDS011;49297;43.210;27.914;2023-11-19T09:21:35;6.15;;;5.45;;
63203;SDS011;49297;43.210;27.914;2023-11-19T09:24:04;6.93;;;6.22;;
63203;SDS011;49297;43.210;27.914;2023-11-19T09:26:30;8.10;;;7.00;;
63203;SDS011;49297;43.210;27.914;2023-11-19T09:28:56;5.18;;;4.55;;
63203;SDS011;49297;43.210;27.914;2023-11-19T09:31:22;5.70;;;5.13;;
63203;SDS011;49297;43.210;27.914;2023-11-19T09:33:49;6.68;;;5.43;;
63203;SDS011;49297;43.210;27.914;2023-11-19T09:36:15;6.38;;;5.85;;
63203;SDS011;49297;43.210;27.914;2023-11-19T09:38:43;6.68;;;5.93;;
63203;SDS011;49297;43.210;27.914;2023-11-19T09:41:09;9.48;;;6.28;;
63203;SDS011;49297;43.210;27.914;2023-11-19T09:43:38;5.68;;;5.07;;
63203;SDS011;49297;43.210;27.914;2023-11-19T09:46:05;6.05;;;5.38;;
63203;SDS011;49297;43.210;27.914;2023-11-19T09:48:35;9.15;;;5.50;;
63203;SDS011;49297;43.210;27.914;2023-11-19T09:51:05;6.07;;;5.57;;
63203;SDS011;49297;43.210;27.914;2023-11-19T09:53:33;5.63;;;5.13;;
63203;SDS011;49297;43.210;27.914;2023-11-19T09:55:59;5.75;;;5.15;;
63203;SDS011;49297;43.210;27.914;2023-11-19T09:58:28;7.22;;;6.45;;
63203;SDS011;49297;43.210;27.914;2023-11-19T10:00:56;5.45;;;4.90;;
63203;SDS011;49297;43.210;27.914;2023-11-19T10:03:32;8.07;;;5.60;;
63203;SDS011;49297;43.210;27.914;2023-11-19T10:06:08;14.00;;;7.25;;
63203;SDS011;49297;43.210;27.914;2023-11-19T10:08:39;10.73;;;6.43;;
63203;SDS011;49297;43.210;27.914;2023-11-19T10:11:05;6.80;;;4.90;;
63203;SDS011;49297;43.210;27.914;2023-11-19T10:13:31;7.35;;;6.57;;
63203;SDS011;49297;43.210;27.914;2023-11-19T10:16:09;5.72;;;5.03;;
63203;SDS011;49297;43.210;27.914;2023-11-19T10:18:48;7.78;;;6.30;;
63203;SDS011;49297;43.210;27.914;2023-11-19T10:21:20;6.95;;;6.20;;
63203;SDS011;49297;43.210;27.914;2023-11-19T10:23:49;6.32;;;5.43;;
63203;SDS011;49297;43.210;27.914;2023-11-19T10:26:27;6.22;;;5.45;;
63203;SDS011;49297;43.210;27.914;2023-11-19T10:28:55;6.45;;;5.38;;
63203;SDS011;49297;43.210;27.914;2023-11-19T10:31:22;8.32;;;5.55;;
63203;SDS011;49297;43.210;27.914;2023-11-19T10:33:51;14.52;;;7.80;;
63203;SDS011;49297;43.210;27.914;2023-11-19T10:36:18;6.53;;;6.00;;
63203;SDS011;49297;43.210;27.914;2023-11-19T10:38:51;7.95;;;6.70;;
63203;SDS011;49297;43.210;27.914;2023-11-19T10:41:31;7.07;;;5.68;;
63203;SDS011;49297;43.210;27.914;2023-11-19T10:43:58;5.60;;;5.10;;
63203;SDS011;49297;43.210;27.914;2023-11-19T10:46:36;6.40;;;5.80;;
63203;SDS011;49297;43.210;27.914;2023-11-19T10:49:09;8.75;;;4.45;;
63203;SDS011;49297;43.210;27.914;2023-11-19T10:51:36;9.55;;;5.40;;
63203;SDS011;49297;43.210;27.914;2023-11-19T10:54:10;6.10;;;4.63;;
63203;SDS011;49297;43.210;27.914;2023-11-19T10:56:38;6.97;;;4.97;;
63203;SDS011;49297;43.210;27.914;2023-11-19T10:59:08;5.38;;;4.88;;
63203;SDS011;49297;43.210;27.914;2023-11-19T11:01:39;4.65;;;4.18;;
63203;SDS011;49297;43.210;27.914;2023-11-19T11:04:22;7.20;;;4.25;;
63203;SDS011;49297;43.210;27.914;2023-11-19T11:06:50;4.85;;;4.40;;
63203;SDS011;49297;43.210;27.914;2023-11-19T11:09:16;4.70;;;4.30;;
63203;SDS011;49297;43.210;27.914;2023-11-19T11:11:46;5.13;;;4.07;;
63203;SDS011;49297;43.210;27.914;2023-11-19T11:14:13;5.97;;;5.32;;
63203;SDS011;49297;43.210;27.914;2023-11-19T11:16:42;6.22;;;5.07;;
63203;SDS011;49297;43.210;27.914;2023-11-19T11:19:12;6.63;;;4.85;;
63203;SDS011;49297;43.210;27.914;2023-11-19T11:21:38;7.95;;;5.00;;
63203;SDS011;49297;43.210;27.914;2023-11-19T11:30:10;5.63;;;5.13;;
63203;SDS011;49297;43.210;27.914;2023-11-19T11:33:02;5.82;;;5.28;;
63203;SDS011;49297;43.210;27.914;2023-11-19T11:38:23;6.32;;;5.00;;
63203;SDS011;49297;43.210;27.914;2023-11-19T11:49:05;5.22;;;4.70;;
63203;SDS011;49297;43.210;27.914;2023-11-19T11:54:10;5.82;;;5.25;;
63203;SDS011;49297;43.210;27.914;2023-11-19T11:56:37;8.73;;;4.78;;
63203;SDS011;49297;43.210;27.914;2023-11-19T11:59:07;5.47;;;4.22;;
63203;SDS011;49297;43.210;27.914;2023-11-19T12:01:34;5.63;;;5.10;;
63203;SDS011;49297;43.210;27.914;2023-11-19T12:04:00;6.07;;;5.35;;
63203;SDS011;49297;43.210;27.914;2023-11-19T12:06:26;6.25;;;4.80;;
63203;SDS011;49297;43.210;27.914;2023-11-19T12:08:53;6.90;;;5.47;;
63203;SDS011;49297;43.210;27.914;2023-11-19T12:11:25;5.57;;;4.88;;
63203;SDS011;49297;43.210;27.914;2023-11-19T12:13:53;7.53;;;5.90;;
63203;SDS011;49297;43.210;27.914;2023-11-19T12:16:21;6.72;;;5.40;;
63203;SDS011;49297;43.210;27.914;2023-11-19T12:18:47;8.32;;;6.38;;
63203;SDS011;49297;43.210;27.914;2023-11-19T12:21:27;6.97;;;5.85;;
63203;SDS011;49297;43.210;27.914;2023-11-19T12:23:55;5.13;;;3.80;;
63203;SDS011;49297;43.210;27.914;2023-11-19T12:26:32;6.07;;;4.70;;
63203;SDS011;49297;43.210;27.914;2023-11-19T12:29:01;7.03;;;5.88;;
63203;SDS011;49297;43.210;27.914;2023-11-19T12:31:29;6.10;;;5.35;;
63203;SDS011;49297;43.210;27.914;2023-11-19T12:36:23;7.78;;;5.30;;
63203;SDS011;49297;43.210;27.914;2023-11-19T12:38:49;7.32;;;6.60;;
63203;SDS011;49297;43.210;27.914;2023-11-19T12:41:16;5.45;;;4.53;;
63203;SDS011;49297;43.210;27.914;2023-11-19T12:43:45;6.47;;;5.88;;
63203;SDS011;49297;43.210;27.914;2023-11-19T12:46:21;8.35;;;6.88;;
63203;SDS011;49297;43.210;27.914;2023-11-19T12:48:48;8.55;;;6.75;;
63203;SDS011;49297;43.210;27.914;2023-11-19T12:51:15;8.57;;;6.53;;
63203;SDS011;49297;43.210;27.914;2023-11-19T12:56:20;6.78;;;5.68;;
63203;SDS011;49297;43.210;27.914;2023-11-19T12:58:47;10.18;;;6.45;;
63203;SDS011;49297;43.210;27.914;2023-11-19T13:01:17;7.57;;;5.68;;
63203;SDS011;49297;43.210;27.914;2023-11-19T13:03:44;7.35;;;6.47;;
63203;SDS011;49297;43.210;27.914;2023-11-19T13:06:12;8.88;;;6.90;;
63203;SDS011;49297;43.210;27.914;2023-11-19T13:11:09;8.70;;;7.17;;
63203;SDS011;49297;43.210;27.914;2023-11-19T13:16:39;7.75;;;7.05;;
63203;SDS011;49297;43.210;27.914;2023-11-19T13:19:04;7.80;;;6.32;;
63203;SDS011;49297;43.210;27.914;2023-11-19T13:21:31;8.50;;;6.70;;
63203;SDS011;49297;43.210;27.914;2023-11-19T13:23:57;9.70;;;7.25;;
63203;SDS011;49297;43.210;27.914;2023-11-19T13:26:23;8.02;;;7.25;;
63203;SDS011;49297;43.210;27.914;2023-11-19T13:28:49;8.30;;;7.20;;
63203;SDS011;49297;43.210;27.914;2023-11-19T13:31:14;6.60;;;5.63;;
63203;SDS011;49297;43.210;27.914;2023-11-19T13:33:41;8.85;;;6.30;;
63203;SDS011;49297;43.210;27.914;2023-11-19T13:36:07;8.45;;;6.45;;
63203;SDS011;49297;43.210;27.914;2023-11-19T13:38:35;8.90;;;6.22;;
63203;SDS011;49297;43.210;27.914;2023-11-19T13:41:01;8.20;;;7.20;;
63203;SDS011;49297;43.210;27.914;2023-11-19T13:43:28;6.90;;;6.30;;
63203;SDS011;49297;43.210;27.914;2023-11-19T13:45:54;8.02;;;7.13;;
63203;SDS011;49297;43.210;27.914;2023-11-19T13:48:20;7.20;;;6.40;;
63203;SDS011;49297;43.210;27.914;2023-11-19T13:50:46;7.63;;;6.50;;
63203;SDS011;49297;43.210;27.914;2023-11-19T13:53:18;8.55;;;6.80;;
63203;SDS011;49297;43.210;27.914;2023-11-19T13:55:44;11.00;;;5.90;;
63203;SDS011;49297;43.210;27.914;2023-11-19T13:58:10;7.57;;;6.88;;
63203;SDS011;49297;43.210;27.914;2023-11-19T14:00:36;8.18;;;7.38;;
63203;SDS011;49297;43.210;27.914;2023-11-19T14:03:02;7.95;;;6.78;;
63203;SDS011;49297;43.210;27.914;2023-11-19T14:05:28;7.68;;;6.90;;
63203;SDS011;49297;43.210;27.914;2023-11-19T14:07:54;7.68;;;6.72;;
63203;SDS011;49297;43.210;27.914;2023-11-19T14:10:22;6.85;;;6.15;;
63203;SDS011;49297;43.210;27.914;2023-11-19T14:12:48;8.00;;;7.13;;
63203;SDS011;49297;43.210;27.914;2023-11-19T14:15:15;8.13;;;7.32;;
63203;SDS011;49297;43.210;27.914;2023-11-19T14:17:42;9.15;;;8.25;;
63203;SDS011;49297;43.210;27.914;2023-11-19T14:20:09;6.68;;;6.03;;
63203;SDS011;49297;43.210;27.914;2023-11-19T14:22:42;6.13;;;5.53;;
63203;SDS011;49297;43.210;27.914;2023-11-19T14:25:09;7.35;;;6.57;;
63203;SDS011;49297;43.210;27.914;2023-11-19T14:27:39;6.88;;;6.28;;
63203;SDS011;49297;43.210;27.914;2023-11-19T14:30:09;7.80;;;7.05;;
63203;SDS011;49297;43.210;27.914;2023-11-19T14:32:41;6.05;;;5.25;;
63203;SDS011;49297;43.210;27.914;2023-11-19T14:35:09;8.32;;;7.00;;
63203;SDS011;49297;43.210;27.914;2023-11-19T14:37:35;8.65;;;7.13;;
63203;SDS011;49297;43.210;27.914;2023-11-19T14:40:01;8.30;;;6.15;;
63203;SDS011;49297;43.210;27.914;2023-11-19T14:42:29;7.53;;;5.35;;
63203;SDS011;49297;43.210;27.914;2023-11-19T14:44:55;10.68;;;6.10;;
63203;SDS011;49297;43.210;27.914;2023-11-19T14:47:21;7.07;;;6.25;;
63203;SDS011;49297;43.210;27.914;2023-11-19T14:49:47;11.95;;;7.68;;
63203;SDS011;49297;43.210;27.914;2023-11-19T14:52:14;10.70;;;7.00;;
63203;SDS011;49297;43.210;27.914;2023-11-19T14:54:40;10.55;;;8.52;;
63203;SDS011;49297;43.210;27.914;2023-11-19T14:57:06;6.75;;;6.10;;
63203;SDS011;49297;43.210;27.914;2023-11-19T14:59:36;8.07;;;5.88;;
63203;SDS011;49297;43.210;27.914;2023-11-19T15:02:02;7.90;;;5.78;;
63203;SDS011;49297;43.210;27.914;2023-11-19T15:04:28;7.60;;;6.40;;
63203;SDS011;49297;43.210;27.914;2023-11-19T15:06:58;12.20;;;6.47;;
63203;SDS011;49297;43.210;27.914;2023-11-19T15:09:24;7.90;;;6.82;;
63203;SDS011;49297;43.210;27.914;2023-11-19T15:11:53;7.70;;;6.47;;
63203;SDS011;49297;43.210;27.914;2023-11-19T15:14:19;7.65;;;6.85;;
63203;SDS011;49297;43.210;27.914;2023-11-19T15:16:45;7.15;;;5.93;;
63203;SDS011;49297;43.210;27.914;2023-11-19T15:19:12;7.25;;;6.28;;
63203;SDS011;49297;43.210;27.914;2023-11-19T15:21:40;6.85;;;6.03;;